createdAt,value
2018-04-02T00:00:24.587Z,2.40
2018-04-02T00:02:51.275Z,1.80
2018-04-02T00:05:17.587Z,1.80
2018-04-02T00:07:44.006Z,2.60
2018-04-02T00:10:11.114Z,2.50
2018-04-02T00:12:38.367Z,2.50
2018-04-02T00:15:05.619Z,2.03
2018-04-02T00:17:31.947Z,2.07
2018-04-02T00:19:58.295Z,1.53
2018-04-02T00:22:25.449Z,1.67
2018-04-02T00:24:51.756Z,1.80
2018-04-02T00:27:18.072Z,1.93
2018-04-02T00:29:45.379Z,2.30
2018-04-02T00:32:11.691Z,2.00
2018-04-02T00:34:38.763Z,2.20
2018-04-02T00:37:06.230Z,1.70
2018-04-02T00:39:32.567Z,1.60
2018-04-02T00:41:59.726Z,1.70
2018-04-02T00:44:26.951Z,1.77
2018-04-02T00:46:54.035Z,2.30
2018-04-02T00:49:21.704Z,2.73
2018-04-02T00:51:48.003Z,2.20
2018-04-02T00:54:15.191Z,1.93
2018-04-02T00:56:41.499Z,1.87
2018-04-02T00:59:07.810Z,2.10
2018-04-02T01:01:35.219Z,1.93
2018-04-02T01:04:01.543Z,1.70
2018-04-02T01:06:29.434Z,1.67
2018-04-02T01:08:55.746Z,2.30
2018-04-02T01:11:24.768Z,2.07
2018-04-02T01:13:51.075Z,1.80
2018-04-02T01:16:17.383Z,1.47
2018-04-02T01:18:44.665Z,1.63
2018-04-02T01:21:11.811Z,2.30
2018-04-02T01:23:38.179Z,1.97
2018-04-02T01:26:04.531Z,1.73
2018-04-02T01:28:33.619Z,1.70
2018-04-02T01:30:59.962Z,1.40
2018-04-02T01:33:27.315Z,2.17
2018-04-02T01:35:53.629Z,2.20
2018-04-02T01:38:20.715Z,2.90
2018-04-02T01:40:47.770Z,3.30
2018-04-02T01:43:15.563Z,2.30
2018-04-02T01:45:44.329Z,3.13
2018-04-02T01:48:11.480Z,4.20
2018-04-02T01:50:37.791Z,3.30
2018-04-02T01:53:04.111Z,3.80
2018-04-02T01:55:31.411Z,3.63
2018-04-02T01:57:57.739Z,3.97
2018-04-02T02:00:24.080Z,3.67
2018-04-02T02:02:50.835Z,3.30
2018-04-02T02:05:17.983Z,3.13
2018-04-02T02:07:44.321Z,3.60
2018-04-02T02:10:11.571Z,3.30
2018-04-02T02:12:38.623Z,2.73
2018-04-02T02:15:04.939Z,2.00
2018-04-02T02:17:32.023Z,3.17
2018-04-02T02:19:59.071Z,2.40
2018-04-02T02:22:25.411Z,3.90
2018-04-02T02:24:51.716Z,3.93
2018-04-02T02:27:18.391Z,3.80
2018-04-02T02:29:44.714Z,3.63
2018-04-02T02:32:11.115Z,3.20
2018-04-02T02:34:38.236Z,3.33
2018-04-02T02:37:05.575Z,4.07
2018-04-02T02:39:31.896Z,3.40
2018-04-02T02:41:58.244Z,2.80
2018-04-02T02:44:25.554Z,4.70
2018-04-02T02:46:53.421Z,4.90
2018-04-02T02:49:20.475Z,4.17
2018-04-02T02:51:47.580Z,3.87
2018-04-02T02:54:14.995Z,5.00
2018-04-02T02:56:41.308Z,3.70
2018-04-02T02:59:08.357Z,3.07
2018-04-02T03:01:36.001Z,4.20
2018-04-02T03:04:02.695Z,4.53
2018-04-02T03:06:29.800Z,2.87
2018-04-02T03:08:56.099Z,3.07
2018-04-02T03:11:23.691Z,3.47
2018-04-02T03:13:50.059Z,3.37
2018-04-02T03:16:18.111Z,3.30
2018-04-02T03:18:44.421Z,2.57
2018-04-02T03:21:10.742Z,2.30
2018-04-02T03:23:37.426Z,3.40
2018-04-02T03:26:03.736Z,3.10
2018-04-02T03:28:30.118Z,3.50
2018-04-02T03:30:56.462Z,2.90
2018-04-02T03:33:23.437Z,4.20
2018-04-02T03:35:50.531Z,2.90
2018-04-02T03:38:17.697Z,2.80
2018-04-02T03:40:43.996Z,2.87
2018-04-02T03:43:11.116Z,2.60
2018-04-02T03:45:38.135Z,2.27
2018-04-02T03:48:05.186Z,1.73
2018-04-02T03:50:31.502Z,2.63
2018-04-02T03:52:57.801Z,3.10
2018-04-02T03:55:25.529Z,2.90
2018-04-02T03:57:51.840Z,3.40
2018-04-02T04:00:19.124Z,2.50
2018-04-02T04:02:45.438Z,2.00
2018-04-02T04:05:12.805Z,3.03
2018-04-02T04:07:39.120Z,2.67
2018-04-02T04:10:05.433Z,2.50
2018-04-02T04:12:33.260Z,3.03
2018-04-02T04:14:59.572Z,3.00
2018-04-02T04:17:25.921Z,2.30
2018-04-02T04:19:52.475Z,2.40
2018-04-02T04:22:18.788Z,2.40
2018-04-02T04:24:45.208Z,2.90
2018-04-02T04:27:11.846Z,2.50
2018-04-02T04:29:38.156Z,2.50
2018-04-02T04:32:04.451Z,2.17
2018-04-02T04:34:31.441Z,2.80
2018-04-02T04:36:59.388Z,2.20
2018-04-02T04:39:25.716Z,2.00
2018-04-02T04:41:52.034Z,1.97
2018-04-02T04:44:19.216Z,2.33
2018-04-02T04:46:46.575Z,2.47
2018-04-02T04:49:12.888Z,1.90
2018-04-02T04:51:39.200Z,2.00
2018-04-02T04:54:05.793Z,2.00
2018-04-02T04:56:32.964Z,1.87
2018-04-02T04:59:01.530Z,2.60
2018-04-02T05:01:29.404Z,3.60
2018-04-02T05:03:55.726Z,3.70
2018-04-02T05:06:22.044Z,3.23
2018-04-02T05:08:48.625Z,2.40
2018-04-02T05:11:15.977Z,2.80
2018-04-02T05:13:43.440Z,3.33
2018-04-02T05:16:09.750Z,3.40
2018-04-02T05:18:36.055Z,3.83
2018-04-02T05:21:03.473Z,13.40
2018-04-02T05:23:29.808Z,9.83
2018-04-02T05:25:56.240Z,5.67
2018-04-02T05:28:22.636Z,4.23
2018-04-02T05:30:49.681Z,3.33
2018-04-02T05:33:17.612Z,2.90
2018-04-02T05:35:43.927Z,2.23
2018-04-02T05:38:11.203Z,2.67
2018-04-02T05:40:37.519Z,3.70
2018-04-02T05:43:04.600Z,3.03
2018-04-02T05:45:32.368Z,3.40
2018-04-02T05:47:58.673Z,3.87
2018-04-02T05:50:25.756Z,3.10
2018-04-02T05:52:52.065Z,4.10
2018-04-02T05:55:19.244Z,2.90
2018-04-02T06:09:54.700Z,2.70
2018-04-02T06:12:21.746Z,3.10
2018-04-02T06:14:48.801Z,2.40
2018-04-02T06:17:16.161Z,3.53
2018-04-02T06:19:43.420Z,3.60
2018-04-02T06:22:10.369Z,3.20
2018-04-02T06:24:37.523Z,3.80
2018-04-02T06:27:04.676Z,3.67
2018-04-02T06:29:32.559Z,3.83
2018-04-02T06:32:01.339Z,3.80
2018-04-02T06:34:28.804Z,3.83
2018-04-02T06:36:55.930Z,4.07
2018-04-02T06:39:23.210Z,3.90
2018-04-02T06:41:50.268Z,4.03
2018-04-02T06:44:17.219Z,3.70
2018-04-02T06:46:44.681Z,4.33
2018-04-02T06:49:11.697Z,4.00
2018-04-02T06:51:39.615Z,4.00
2018-04-02T06:54:06.817Z,3.43
2018-04-02T06:56:33.956Z,3.60
2018-04-02T06:59:01.896Z,4.27
2018-04-02T07:01:29.978Z,3.37
2018-04-02T07:03:57.272Z,3.80
2018-04-02T07:06:25.106Z,3.60
2018-04-02T07:08:52.392Z,3.50
2018-04-02T07:11:20.225Z,3.60
2018-04-02T07:13:47.481Z,3.43
2018-04-02T07:16:14.945Z,3.67
2018-04-02T07:18:42.108Z,3.80
2018-04-02T07:21:09.156Z,3.83
2018-04-02T07:23:36.508Z,4.10
2018-04-02T07:26:03.769Z,3.43
2018-04-02T07:28:31.946Z,3.20
2018-04-02T07:30:59.231Z,3.27
2018-04-02T07:33:26.368Z,3.30
2018-04-02T07:35:53.513Z,3.43
2018-04-02T07:38:20.684Z,2.67
2018-04-02T07:40:47.849Z,2.70
2018-04-02T07:43:14.984Z,3.00
2018-04-02T07:45:42.239Z,2.90
2018-04-02T07:48:09.500Z,3.10
2018-04-02T07:50:36.571Z,2.67
2018-04-02T07:53:03.910Z,2.73
2018-04-02T07:55:31.065Z,2.77
2018-04-02T07:57:59.041Z,2.70
2018-04-02T08:00:26.504Z,3.47
2018-04-02T08:02:54.051Z,2.40
2018-04-02T08:05:22.039Z,2.87
2018-04-02T08:07:49.195Z,2.77
2018-04-02T08:10:16.456Z,2.63
2018-04-02T08:12:43.814Z,2.20
2018-04-02T08:15:10.988Z,2.77
2018-04-02T08:17:38.332Z,2.20
2018-04-02T08:20:06.413Z,2.40
2018-04-02T08:22:33.425Z,2.27
2018-04-02T08:25:00.436Z,2.33
2018-04-02T08:27:28.279Z,2.33
2018-04-02T08:29:55.428Z,1.90
2018-04-02T08:32:22.492Z,2.00
2018-04-02T08:34:49.587Z,1.93
2018-04-02T08:37:17.513Z,1.90
2018-04-02T08:39:44.668Z,2.17
2018-04-02T08:42:11.929Z,1.93
2018-04-02T08:44:39.178Z,1.70
2018-04-02T08:47:06.236Z,2.03
2018-04-02T08:49:33.297Z,1.80
2018-04-02T08:52:00.644Z,2.07
2018-04-02T08:54:28.009Z,2.07
2018-04-02T08:56:55.166Z,1.77
2018-04-02T08:59:22.215Z,1.80
2018-04-02T09:01:49.388Z,2.17
2018-04-02T09:04:17.449Z,1.70
2018-04-02T09:06:44.711Z,1.87
2018-04-02T09:09:11.762Z,1.60
2018-04-02T09:11:38.713Z,1.50
2018-04-02T09:14:06.074Z,1.60
2018-04-02T09:16:33.122Z,1.80
2018-04-02T09:19:00.195Z,1.80
2018-04-02T09:21:28.353Z,1.83
2018-04-02T09:23:55.820Z,1.67
2018-04-02T09:26:23.812Z,1.67
2018-04-02T09:28:50.945Z,1.50
2018-04-02T09:31:17.999Z,1.30
2018-04-02T09:33:45.227Z,1.40
2018-04-02T09:36:12.307Z,1.23
2018-04-02T09:38:39.444Z,1.50
2018-04-02T09:41:06.516Z,1.70
2018-04-02T09:43:33.672Z,1.60
2018-04-02T09:46:00.825Z,1.50
2018-04-02T09:48:27.981Z,1.17
2018-04-02T09:50:55.346Z,1.20
2018-04-02T09:53:22.702Z,1.40
2018-04-02T09:55:49.960Z,1.30
2018-04-02T09:58:17.332Z,1.50
2018-04-02T10:00:45.396Z,1.27
2018-04-02T10:03:12.636Z,1.50
2018-04-02T10:05:39.714Z,2.00
2018-04-02T10:08:06.860Z,1.40
2018-04-02T10:10:35.625Z,3.40
2018-04-02T10:13:02.817Z,1.70
2018-04-02T10:15:30.255Z,5.60
2018-04-02T10:17:58.145Z,1.40
2018-04-02T10:20:25.299Z,1.77
2018-04-02T10:22:52.444Z,1.80
2018-04-02T10:25:19.604Z,1.40
2018-04-02T10:27:46.760Z,1.50
2018-04-02T10:30:13.820Z,2.00
2018-04-02T10:32:40.976Z,1.40
2018-04-02T10:35:08.129Z,4.30
2018-04-02T10:37:35.382Z,7.10
2018-04-02T10:40:02.644Z,1.67
2018-04-02T10:42:29.692Z,1.10
2018-04-02T10:44:56.752Z,1.13
2018-04-02T10:47:24.924Z,1.80
2018-04-02T10:49:51.977Z,3.03
2018-04-02T10:52:19.756Z,1.23
2018-04-02T10:54:47.509Z,1.30
2018-04-02T10:57:14.613Z,2.30
2018-04-02T10:59:42.572Z,1.33
2018-04-02T11:02:11.164Z,1.00
2018-04-02T11:04:39.100Z,1.10
2018-04-02T11:07:06.659Z,1.10
2018-04-02T11:09:34.048Z,1.23
2018-04-02T11:12:01.185Z,1.10
2018-04-02T11:14:28.332Z,1.20
2018-04-02T11:16:56.516Z,1.20
2018-04-02T11:19:23.577Z,0.90
2018-04-02T11:21:50.716Z,1.00
2018-04-02T11:24:17.780Z,1.00
2018-04-02T11:26:44.932Z,1.07
2018-04-02T11:29:12.289Z,1.20
2018-04-02T11:31:39.344Z,1.00
2018-04-02T11:34:06.900Z,1.00
2018-04-02T11:36:33.865Z,1.00
2018-04-02T11:39:00.920Z,1.00
2018-04-02T11:41:28.268Z,1.10
2018-04-02T11:43:55.316Z,1.00
2018-04-02T11:46:22.376Z,1.10
2018-04-02T11:48:49.505Z,0.90
2018-04-02T11:51:16.894Z,0.90
2018-04-02T11:53:44.864Z,1.00
2018-04-02T11:56:12.023Z,0.80
2018-04-02T11:58:39.074Z,1.03
2018-04-02T12:01:06.441Z,1.00
2018-04-02T12:03:33.526Z,1.40
2018-04-02T12:06:01.845Z,1.37
2018-04-02T12:08:28.977Z,1.10
2018-04-02T12:10:56.312Z,0.93
2018-04-02T12:13:24.356Z,1.03
2018-04-02T12:15:51.616Z,1.23
2018-04-02T12:18:18.868Z,0.80
2018-04-02T12:20:46.033Z,0.97
2018-04-02T12:23:13.077Z,1.33
2018-04-02T12:25:40.240Z,0.87
2018-04-02T12:28:07.287Z,1.10
2018-04-02T12:30:34.844Z,0.97
2018-04-02T12:33:02.124Z,0.90
2018-04-02T12:35:29.113Z,0.93
2018-04-02T12:37:56.320Z,0.90
2018-04-02T12:40:23.784Z,0.90
2018-04-02T12:42:51.036Z,1.20
2018-04-02T12:45:18.816Z,1.00
2018-04-02T12:47:45.858Z,1.00
2018-04-02T12:50:12.916Z,0.93
2018-04-02T12:52:39.959Z,1.10
2018-04-02T12:55:07.273Z,1.10
2018-04-02T12:57:34.273Z,1.10
2018-04-02T13:00:01.432Z,1.00
2018-04-02T13:02:28.584Z,1.10
2018-04-02T13:04:55.639Z,1.00
2018-04-02T13:07:22.708Z,1.03
2018-04-02T13:09:49.852Z,1.00
2018-04-02T13:12:16.905Z,0.87
2018-04-02T13:14:43.954Z,1.10
2018-04-02T13:17:11.009Z,0.80
2018-04-02T13:19:38.241Z,1.00
2018-04-02T13:22:05.312Z,0.90
2018-04-02T13:24:32.468Z,0.83
2018-04-02T13:27:00.041Z,0.93
2018-04-02T13:29:27.091Z,1.00
2018-04-02T13:31:54.239Z,0.80
2018-04-02T13:34:21.405Z,0.80
2018-04-02T13:36:48.506Z,0.90
2018-04-02T13:39:15.818Z,1.03
2018-04-02T13:41:43.068Z,0.97
2018-04-02T13:44:10.422Z,2.90
2018-04-02T13:46:38.282Z,1.10
2018-04-02T13:49:05.348Z,1.80
2018-04-02T13:51:32.409Z,2.30
2018-04-02T13:53:59.562Z,3.30
2018-04-02T13:56:26.723Z,1.07
2018-04-02T13:58:53.868Z,1.10
2018-04-02T14:01:21.031Z,1.30
2018-04-02T14:03:48.284Z,0.80
2018-04-02T14:06:15.337Z,0.90
2018-04-02T14:08:42.392Z,1.00
2018-04-02T14:11:09.644Z,0.90
2018-04-02T14:13:36.698Z,0.87
2018-04-02T14:16:04.065Z,0.90
2018-04-02T14:18:31.112Z,1.00
2018-04-02T14:20:58.168Z,1.10
2018-04-02T14:23:25.322Z,1.10
2018-04-02T14:25:52.377Z,0.97
2018-04-02T14:28:19.428Z,0.90
2018-04-02T14:30:46.580Z,0.83
2018-04-02T14:33:13.740Z,1.00
2018-04-02T14:35:40.996Z,0.90
2018-04-02T14:38:08.247Z,0.93
2018-04-02T14:40:35.408Z,0.97
2018-04-02T14:43:02.668Z,2.30
2018-04-02T14:45:29.644Z,2.00
2018-04-02T14:47:58.108Z,1.27
2018-04-02T14:50:25.155Z,1.20
2018-04-02T14:52:52.318Z,1.10
2018-04-02T14:55:19.519Z,0.90
2018-04-02T14:57:47.644Z,0.70
2018-04-02T15:00:14.947Z,0.83
2018-04-02T15:02:42.876Z,1.00
2018-04-02T15:05:10.133Z,0.90
2018-04-02T15:07:37.900Z,0.90
2018-04-02T15:10:05.160Z,0.80
2018-04-02T15:12:32.412Z,1.70
2018-04-02T15:14:59.572Z,1.10
2018-04-02T15:17:26.905Z,1.00
2018-04-02T15:19:53.988Z,1.60
2018-04-02T15:22:21.253Z,1.50
2018-04-02T15:24:49.877Z,2.20
2018-04-02T15:27:16.980Z,1.00
2018-04-02T15:29:44.339Z,1.70
2018-04-02T15:32:11.600Z,1.23
2018-04-02T15:34:39.128Z,1.20
2018-04-02T15:37:06.529Z,0.90
2018-04-02T15:39:33.526Z,0.90
2018-04-02T15:42:00.732Z,0.97
2018-04-02T15:44:27.785Z,0.80
2018-04-02T15:46:54.945Z,0.90
2018-04-02T15:49:22.061Z,0.90
2018-04-02T15:51:49.395Z,0.90
2018-04-02T15:54:18.243Z,1.00
2018-04-02T15:56:45.442Z,0.77
2018-04-02T15:59:13.376Z,1.07
2018-04-02T16:01:40.435Z,0.70
2018-04-02T16:04:08.298Z,0.77
2018-04-02T16:06:35.354Z,1.00
2018-04-02T16:09:02.513Z,0.70
2018-04-02T16:11:29.508Z,0.87
2018-04-02T16:13:57.337Z,1.00
2018-04-02T16:16:24.328Z,0.93
2018-04-02T16:18:52.865Z,0.90
2018-04-02T16:21:20.018Z,0.80
2018-04-02T16:23:47.220Z,0.80
2018-04-02T16:26:15.066Z,0.80
2018-04-02T16:28:42.212Z,0.90
2018-04-02T16:31:09.257Z,0.70
2018-04-02T16:33:36.307Z,1.47
2018-04-02T16:36:03.781Z,0.87
2018-04-02T16:38:30.933Z,0.87
2018-04-02T16:40:58.080Z,1.00
2018-04-02T16:43:25.452Z,1.10
2018-04-02T16:45:53.393Z,1.30
2018-04-02T16:48:20.546Z,0.90
2018-04-02T16:50:47.728Z,0.70
2018-04-02T16:53:14.880Z,0.87
2018-04-02T16:55:42.050Z,1.00
2018-04-02T16:58:09.137Z,0.97
2018-04-02T17:00:36.970Z,1.40
2018-04-02T17:03:04.120Z,1.00
2018-04-02T17:05:30.436Z,1.10
2018-04-02T17:07:56.780Z,1.70
2018-04-02T17:10:23.345Z,1.90
2018-04-02T17:12:49.659Z,1.70
2018-04-02T17:15:16.725Z,1.60
2018-04-02T17:17:43.043Z,1.10
2018-04-02T17:20:09.376Z,1.10
2018-04-02T17:22:35.729Z,1.37
2018-04-02T17:25:02.056Z,1.00
2018-04-02T17:27:29.232Z,0.90
2018-04-02T17:29:55.560Z,1.00
2018-04-02T17:32:23.641Z,0.87
2018-04-02T17:34:49.945Z,1.10
2018-04-02T17:37:17.310Z,1.10
2018-04-02T17:39:44.279Z,1.00
2018-04-02T17:42:11.369Z,0.80
2018-04-02T17:44:39.210Z,1.37
2018-04-02T17:47:06.777Z,1.00
2018-04-02T17:49:33.105Z,0.90
2018-04-02T17:52:00.751Z,0.90
2018-04-02T17:54:27.122Z,1.07
2018-04-02T17:56:54.172Z,1.10
2018-04-02T17:59:20.486Z,1.07
2018-04-02T18:01:48.068Z,1.20
2018-04-02T18:04:14.383Z,0.93
2018-04-02T18:06:40.701Z,1.00
2018-04-02T18:09:07.701Z,0.90
2018-04-02T18:11:34.745Z,0.90
2018-04-02T18:14:01.796Z,1.50
2018-04-02T18:16:28.158Z,1.07
2018-04-02T18:18:54.481Z,1.13
2018-04-02T18:21:20.841Z,0.77
2018-04-02T18:23:48.876Z,1.07
2018-04-02T18:26:15.182Z,0.80
2018-04-02T18:28:42.497Z,1.10
2018-04-02T18:31:09.499Z,0.80
2018-04-02T18:33:35.818Z,1.00
2018-04-02T18:36:02.954Z,0.90
2018-04-02T18:38:30.065Z,1.10
2018-04-02T18:40:56.390Z,1.20
2018-04-02T18:43:23.673Z,1.00
2018-04-02T18:45:50.937Z,1.23
2018-04-02T18:48:18.087Z,1.10
2018-04-02T18:50:44.407Z,1.30
2018-04-02T18:53:11.512Z,1.20
2018-04-02T18:55:38.593Z,1.60
2018-04-02T18:58:05.653Z,1.30
2018-04-02T19:00:34.002Z,1.10
2018-04-02T19:03:01.216Z,0.90
2018-04-02T19:05:27.539Z,1.07
2018-04-02T19:07:53.863Z,1.30
2018-04-02T19:10:20.434Z,1.20
2018-04-02T19:12:48.339Z,1.00
2018-04-02T19:15:16.082Z,1.10
2018-04-02T19:17:43.120Z,1.10
2018-04-02T19:20:09.435Z,1.00
2018-04-02T19:22:36.513Z,1.00
2018-04-02T19:25:02.911Z,1.10
2018-04-02T19:27:30.044Z,1.10
2018-04-02T19:29:57.121Z,1.00
2018-04-02T19:32:24.112Z,1.30
2018-04-02T19:34:51.266Z,1.10
2018-04-02T19:37:17.578Z,1.20
2018-04-02T19:39:44.409Z,1.10
2018-04-02T19:42:11.092Z,1.17
2018-04-02T19:44:38.253Z,0.90
2018-04-02T19:47:06.027Z,1.00
2018-04-02T19:49:32.394Z,1.30
2018-04-02T19:52:00.753Z,1.30
2018-04-02T19:54:27.449Z,1.10
2018-04-02T19:56:54.712Z,1.10
2018-04-02T19:59:21.019Z,1.40
2018-04-02T20:01:49.060Z,1.10
2018-04-02T20:04:15.407Z,1.10
2018-04-02T20:06:41.826Z,1.23
2018-04-02T20:09:08.474Z,1.10
2018-04-02T20:11:35.725Z,1.17
2018-04-02T20:14:02.879Z,1.20
2018-04-02T20:16:29.221Z,3.07
2018-04-02T20:18:56.375Z,1.30
2018-04-02T20:21:22.815Z,1.03
2018-04-02T20:23:50.181Z,1.07
2018-04-02T20:26:16.510Z,1.10
2018-04-02T20:28:44.381Z,1.20
2018-04-02T20:31:12.257Z,1.00
2018-04-02T20:33:38.594Z,1.20
2018-04-02T20:36:04.938Z,1.20
2018-04-02T20:38:31.569Z,1.33
2018-04-02T20:40:58.825Z,1.10
2018-04-02T20:43:25.237Z,1.27
2018-04-02T20:45:52.316Z,1.03
2018-04-02T20:48:21.278Z,1.00
2018-04-02T20:50:48.572Z,1.10
2018-04-02T20:53:15.626Z,1.30
2018-04-02T20:55:42.628Z,1.20
2018-04-02T20:58:08.942Z,1.00
2018-04-02T21:00:36.035Z,1.10
2018-04-02T21:03:03.138Z,1.10
2018-04-02T21:05:29.489Z,1.20
2018-04-02T21:07:57.177Z,1.00
2018-04-02T21:10:23.972Z,0.93
2018-04-02T21:12:51.227Z,1.07
2018-04-02T21:15:18.386Z,1.10
2018-04-02T21:17:45.540Z,1.20
2018-04-02T21:20:11.868Z,1.27
2018-04-02T21:22:39.001Z,1.13
2018-04-02T21:25:05.314Z,1.03
2018-04-02T21:27:32.420Z,1.00
2018-04-02T21:29:58.757Z,1.00
2018-04-02T21:32:25.092Z,1.00
2018-04-02T21:34:51.732Z,1.00
2018-04-02T21:37:18.048Z,1.23
2018-04-02T21:39:44.548Z,1.13
2018-04-02T21:42:11.971Z,1.30
2018-04-02T21:44:39.089Z,1.10
2018-04-02T21:47:06.275Z,1.23
2018-04-02T21:49:32.596Z,1.03
2018-04-02T21:51:58.922Z,0.90
2018-04-02T21:54:26.212Z,0.90
2018-04-02T21:56:52.548Z,0.90
2018-04-02T21:59:18.867Z,0.90
2018-04-02T22:01:46.852Z,0.90
2018-04-02T22:04:13.167Z,1.17
2018-04-02T22:06:52.220Z,1.00
2018-04-02T22:09:18.528Z,1.10
2018-04-02T22:11:45.717Z,1.00
2018-04-02T22:14:12.972Z,1.17
2018-04-02T22:16:39.298Z,1.10
2018-04-02T22:19:06.360Z,1.00
2018-04-02T22:21:33.625Z,1.10
2018-04-02T22:24:00.982Z,1.20
2018-04-02T22:26:27.300Z,1.13
2018-04-02T22:28:54.468Z,1.13
2018-04-02T22:31:20.773Z,1.10
2018-04-02T22:33:47.101Z,1.10
2018-04-02T22:36:14.207Z,1.10
2018-04-02T22:38:40.620Z,1.40
2018-04-02T22:41:06.928Z,1.10
2018-04-02T22:43:35.179Z,1.00
2018-04-02T22:46:03.031Z,1.40
2018-04-02T22:48:31.201Z,0.97
2018-04-02T22:50:58.451Z,1.10
2018-04-02T22:53:25.713Z,1.00
2018-04-02T22:55:52.048Z,1.10
2018-04-02T22:58:18.364Z,1.10
2018-04-02T23:00:45.024Z,1.10
2018-04-02T23:03:12.283Z,0.90
2018-04-02T23:05:38.600Z,1.30
2018-04-02T23:08:04.924Z,1.10
2018-04-02T23:10:31.292Z,1.00
2018-04-02T23:12:58.353Z,1.20
2018-04-02T23:15:25.408Z,1.07
2018-04-02T23:17:52.658Z,1.20
2018-04-02T23:20:18.985Z,1.20
2018-04-02T23:22:52.184Z,1.10
2018-04-02T23:25:19.340Z,1.50
2018-04-02T23:27:45.662Z,1.20
2018-04-02T23:30:12.004Z,1.17
2018-04-02T23:32:38.662Z,1.10
2018-04-02T23:35:04.980Z,1.00
2018-04-02T23:37:31.372Z,1.03
2018-04-02T23:39:58.453Z,1.03
2018-04-02T23:42:25.748Z,1.03
2018-04-02T23:44:52.897Z,0.90
2018-04-02T23:47:19.948Z,1.10
2018-04-02T23:49:46.286Z,1.03
2018-04-02T23:52:13.644Z,0.90
2018-04-02T23:54:40.618Z,1.00
2018-04-02T23:57:06.921Z,0.90
2018-04-02T23:59:33.580Z,1.03
